sensor_id;sensor_type;location;lat;lon;timestamp;pressure;altitude;pressure_sealevel;temperature;humidity
36014;BME280;22275;43.208;27.620;2023-07-31T00:02:08;100584.75;;;27.68;100.00
36014;BME280;22275;43.208;27.620;2023-07-31T00:04:35;100597.94;;;27.23;100.00
36014;BME280;22275;43.208;27.620;2023-07-31T00:07:02;100594.75;;;27.07;100.00
36014;BME280;22275;43.208;27.620;2023-07-31T00:09:31;100599.63;;;26.83;100.00
36014;BME280;22275;43.208;27.620;2023-07-31T00:11:58;100599.50;;;26.36;100.00
36014;BME280;22275;43.208;27.620;2023-07-31T00:14:25;100596.03;;;26.49;100.00
36014;BME280;22275;43.208;27.620;2023-07-31T00:16:54;100595.28;;;26.27;100.00
36014;BME280;22275;43.208;27.620;2023-07-31T00:19:20;100594.53;;;26.67;100.00
36014;BME280;22275;43.208;27.620;2023-07-31T00:21:48;100595.94;;;26.98;100.00
36014;BME280;22275;43.208;27.620;2023-07-31T00:24:15;100589.41;;;27.26;100.00
36014;BME280;22275;43.208;27.620;2023-07-31T00:26:44;100591.50;;;27.31;100.00
36014;BME280;22275;43.208;27.620;2023-07-31T00:29:11;100599.72;;;27.03;100.00
36014;BME280;22275;43.208;27.620;2023-07-31T00:31:38;100601.09;;;26.86;100.00
36014;BME280;22275;43.208;27.620;2023-07-31T00:34:06;100595.47;;;26.53;100.00
36014;BME280;22275;43.208;27.620;2023-07-31T00:36:34;100600.03;;;26.80;100.00
36014;BME280;22275;43.208;27.620;2023-07-31T00:39:01;100610.50;;;26.35;100.00
36014;BME280;22275;43.208;27.620;2023-07-31T00:41:29;100603.19;;;26.07;100.00
36014;BME280;22275;43.208;27.620;2023-07-31T00:43:56;100607.25;;;25.97;100.00
36014;BME280;22275;43.208;27.620;2023-07-31T00:46:23;100607.75;;;25.86;100.00
36014;BME280;22275;43.208;27.620;2023-07-31T00:48:50;100619.19;;;25.66;100.00
36014;BME280;22275;43.208;27.620;2023-07-31T00:51:19;100617.91;;;25.84;100.00
36014;BME280;22275;43.208;27.620;2023-07-31T00:53:45;100614.44;;;25.90;100.00
36014;BME280;22275;43.208;27.620;2023-07-31T00:56:13;100609.50;;;25.93;100.00
36014;BME280;22275;43.208;27.620;2023-07-31T00:58:40;100608.72;;;25.99;100.00
36014;BME280;22275;43.208;27.620;2023-07-31T01:01:07;100606.63;;;26.16;100.00
36014;BME280;22275;43.208;27.620;2023-07-31T01:03:34;100608.31;;;26.23;100.00
36014;BME280;22275;43.208;27.620;2023-07-31T01:06:04;100612.50;;;26.26;100.00
36014;BME280;22275;43.208;27.620;2023-07-31T01:08:37;100602.53;;;26.54;100.00
36014;BME280;22275;43.208;27.620;2023-07-31T01:13:49;100628.44;;;26.42;100.00
36014;BME280;22275;43.208;27.620;2023-07-31T01:16:17;100643.94;;;26.12;100.00
36014;BME280;22275;43.208;27.620;2023-07-31T01:18:44;100658.97;;;25.79;100.00
36014;BME280;22275;43.208;27.620;2023-07-31T01:21:17;100649.97;;;25.93;100.00
36014;BME280;22275;43.208;27.620;2023-07-31T01:23:56;100639.31;;;25.85;100.00
36014;BME280;22275;43.208;27.620;2023-07-31T01:26:32;100628.19;;;25.74;100.00
36014;BME280;22275;43.208;27.620;2023-07-31T01:29:00;100638.25;;;25.86;100.00
36014;BME280;22275;43.208;27.620;2023-07-31T01:31:29;100630.22;;;26.35;100.00
36014;BME280;22275;43.208;27.620;2023-07-31T01:33:57;100619.06;;;26.72;100.00
36014;BME280;22275;43.208;27.620;2023-07-31T01:36:25;100625.03;;;26.89;100.00
36014;BME280;22275;43.208;27.620;2023-07-31T01:38:53;100615.09;;;26.96;100.00
36014;BME280;22275;43.208;27.620;2023-07-31T01:41:24;100615.31;;;27.49;100.00
36014;BME280;22275;43.208;27.620;2023-07-31T01:43:53;100616.03;;;27.23;100.00
36014;BME280;22275;43.208;27.620;2023-07-31T01:46:19;100617.06;;;27.22;100.00
36014;BME280;22275;43.208;27.620;2023-07-31T01:48:46;100620.81;;;27.21;100.00
36014;BME280;22275;43.208;27.620;2023-07-31T01:51:13;100623.03;;;27.11;100.00
36014;BME280;22275;43.208;27.620;2023-07-31T01:53:40;100611.03;;;26.79;100.00
36014;BME280;22275;43.208;27.620;2023-07-31T01:56:07;100600.38;;;26.77;100.00
36014;BME280;22275;43.208;27.620;2023-07-31T01:58:34;100601.19;;;26.71;100.00
36014;BME280;22275;43.208;27.620;2023-07-31T02:01:02;100614.16;;;26.82;100.00
36014;BME280;22275;43.208;27.620;2023-07-31T02:03:29;100608.25;;;26.38;100.00
36014;BME280;22275;43.208;27.620;2023-07-31T02:05:56;100587.16;;;26.27;100.00
36014;BME280;22275;43.208;27.620;2023-07-31T02:08:23;100574.00;;;26.17;100.00
36014;BME280;22275;43.208;27.620;2023-07-31T02:10:51;100578.44;;;26.25;100.00
36014;BME280;22275;43.208;27.620;2023-07-31T02:13:18;100592.88;;;26.39;100.00
36014;BME280;22275;43.208;27.620;2023-07-31T02:15:45;100594.97;;;26.77;100.00
36014;BME280;22275;43.208;27.620;2023-07-31T02:18:13;100596.81;;;27.05;100.00
36014;BME280;22275;43.208;27.620;2023-07-31T02:20:40;100610.69;;;26.61;100.00
36014;BME280;22275;43.208;27.620;2023-07-31T02:23:08;100613.03;;;25.94;100.00
36014;BME280;22275;43.208;27.620;2023-07-31T02:25:35;100627.00;;;25.11;100.00
36014;BME280;22275;43.208;27.620;2023-07-31T02:28:02;100638.72;;;24.89;100.00
36014;BME280;22275;43.208;27.620;2023-07-31T02:30:29;100625.69;;;25.07;100.00
36014;BME280;22275;43.208;27.620;2023-07-31T02:32:56;100627.00;;;25.47;100.00
36014;BME280;22275;43.208;27.620;2023-07-31T02:35:25;100639.50;;;25.33;100.00
36014;BME280;22275;43.208;27.620;2023-07-31T02:37:52;100640.59;;;25.03;100.00
36014;BME280;22275;43.208;27.620;2023-07-31T02:40:19;100649.19;;;24.84;100.00
36014;BME280;22275;43.208;27.620;2023-07-31T02:42:46;100645.13;;;24.88;100.00
36014;BME280;22275;43.208;27.620;2023-07-31T02:45:13;100641.50;;;24.95;100.00
36014;BME280;22275;43.208;27.620;2023-07-31T02:47:40;100651.75;;;25.00;100.00
36014;BME280;22275;43.208;27.620;2023-07-31T02:50:07;100651.44;;;24.95;100.00
36014;BME280;22275;43.208;27.620;2023-07-31T02:52:36;100653.94;;;24.82;100.00
36014;BME280;22275;43.208;27.620;2023-07-31T02:55:03;100653.66;;;24.77;100.00
36014;BME280;22275;43.208;27.620;2023-07-31T02:57:30;100651.06;;;24.98;100.00
36014;BME280;22275;43.208;27.620;2023-07-31T02:59:58;100656.97;;;24.79;100.00
36014;BME280;22275;43.208;27.620;2023-07-31T03:02:25;100657.81;;;24.65;100.00
36014;BME280;22275;43.208;27.620;2023-07-31T03:04:52;100659.25;;;24.52;100.00
36014;BME280;22275;43.208;27.620;2023-07-31T03:07:19;100665.38;;;24.46;100.00
36014;BME280;22275;43.208;27.620;2023-07-31T03:09:48;100662.19;;;24.66;100.00
36014;BME280;22275;43.208;27.620;2023-07-31T03:12:15;100653.22;;;25.17;100.00
36014;BME280;22275;43.208;27.620;2023-07-31T03:14:41;100651.28;;;25.47;100.00
36014;BME280;22275;43.208;27.620;2023-07-31T03:17:08;100659.13;;;25.56;100.00
36014;BME280;22275;43.208;27.620;2023-07-31T03:19:37;100651.81;;;25.71;100.00
36014;BME280;22275;43.208;27.620;2023-07-31T03:22:05;100650.31;;;26.05;100.00
36014;BME280;22275;43.208;27.620;2023-07-31T03:24:32;100646.66;;;26.34;100.00
36014;BME280;22275;43.208;27.620;2023-07-31T03:27:01;100647.19;;;26.50;100.00
36014;BME280;22275;43.208;27.620;2023-07-31T03:29:28;100652.69;;;26.63;100.00
36014;BME280;22275;43.208;27.620;2023-07-31T03:31:54;100647.72;;;26.67;100.00
36014;BME280;22275;43.208;27.620;2023-07-31T03:34:22;100641.94;;;26.76;100.00
36014;BME280;22275;43.208;27.620;2023-07-31T03:36:49;100638.63;;;26.74;100.00
36014;BME280;22275;43.208;27.620;2023-07-31T03:39:16;100643.72;;;26.84;100.00
36014;BME280;22275;43.208;27.620;2023-07-31T03:41:43;100645.25;;;26.72;100.00
36014;BME280;22275;43.208;27.620;2023-07-31T03:44:11;100641.69;;;26.99;100.00
36014;BME280;22275;43.208;27.620;2023-07-31T03:46:38;100650.03;;;26.98;100.00
36014;BME280;22275;43.208;27.620;2023-07-31T03:49:06;100642.31;;;26.95;100.00
36014;BME280;22275;43.208;27.620;2023-07-31T03:51:33;100640.06;;;26.98;100.00
36014;BME280;22275;43.208;27.620;2023-07-31T03:54:00;100638.09;;;27.26;100.00
36014;BME280;22275;43.208;27.620;2023-07-31T03:56:27;100638.66;;;27.09;100.00
36014;BME280;22275;43.208;27.620;2023-07-31T03:58:54;100647.88;;;26.87;100.00
36014;BME280;22275;43.208;27.620;2023-07-31T04:01:23;100658.31;;;26.90;100.00
36014;BME280;22275;43.208;27.620;2023-07-31T04:03:50;100651.72;;;27.05;100.00
36014;BME280;22275;43.208;27.620;2023-07-31T04:06:16;100653.63;;;27.11;100.00
36014;BME280;22275;43.208;27.620;2023-07-31T04:08:44;100646.97;;;27.07;100.00
36014;BME280;22275;43.208;27.620;2023-07-31T04:11:11;100650.88;;;27.05;100.00
36014;BME280;22275;43.208;27.620;2023-07-31T04:13:38;100649.28;;;27.10;100.00
36014;BME280;22275;43.208;27.620;2023-07-31T04:16:05;100647.66;;;27.22;100.00
36014;BME280;22275;43.208;27.620;2023-07-31T04:18:34;100647.25;;;27.25;100.00
36014;BME280;22275;43.208;27.620;2023-07-31T04:21:01;100650.47;;;27.42;100.00
36014;BME280;22275;43.208;27.620;2023-07-31T04:23:28;100658.94;;;27.39;100.00
36014;BME280;22275;43.208;27.620;2023-07-31T04:25:55;100653.66;;;27.52;100.00
36014;BME280;22275;43.208;27.620;2023-07-31T04:28:22;100649.66;;;27.42;100.00
36014;BME280;22275;43.208;27.620;2023-07-31T04:30:51;100650.53;;;27.55;100.00
36014;BME280;22275;43.208;27.620;2023-07-31T04:33:18;100653.06;;;27.63;100.00
36014;BME280;22275;43.208;27.620;2023-07-31T04:35:49;100639.09;;;27.60;100.00
36014;BME280;22275;43.208;27.620;2023-07-31T04:38:18;100642.72;;;27.39;100.00
36014;BME280;22275;43.208;27.620;2023-07-31T04:40:45;100660.34;;;27.63;100.00
36014;BME280;22275;43.208;27.620;2023-07-31T04:43:12;100656.19;;;27.73;100.00
36014;BME280;22275;43.208;27.620;2023-07-31T04:45:42;100657.47;;;27.30;100.00
36014;BME280;22275;43.208;27.620;2023-07-31T04:48:12;100660.38;;;27.69;100.00
36014;BME280;22275;43.208;27.620;2023-07-31T04:50:39;100670.00;;;27.91;100.00
36014;BME280;22275;43.208;27.620;2023-07-31T04:53:08;100668.31;;;27.90;100.00
36014;BME280;22275;43.208;27.620;2023-07-31T04:55:36;100666.25;;;27.99;100.00
36014;BME280;22275;43.208;27.620;2023-07-31T04:58:04;100662.75;;;28.12;100.00
36014;BME280;22275;43.208;27.620;2023-07-31T05:00:31;100667.78;;;28.28;100.00
36014;BME280;22275;43.208;27.620;2023-07-31T05:02:58;100663.41;;;28.40;100.00
36014;BME280;22275;43.208;27.620;2023-07-31T05:05:25;100676.91;;;28.07;100.00
36014;BME280;22275;43.208;27.620;2023-07-31T05:07:52;100667.97;;;28.20;100.00
36014;BME280;22275;43.208;27.620;2023-07-31T05:10:21;100668.84;;;28.46;100.00
36014;BME280;22275;43.208;27.620;2023-07-31T05:12:48;100673.44;;;28.66;100.00
36014;BME280;22275;43.208;27.620;2023-07-31T05:15:14;100675.28;;;28.85;100.00
36014;BME280;22275;43.208;27.620;2023-07-31T05:17:41;100680.50;;;28.80;100.00
36014;BME280;22275;43.208;27.620;2023-07-31T05:20:08;100680.69;;;28.78;100.00
36014;BME280;22275;43.208;27.620;2023-07-31T05:22:35;100682.56;;;28.84;100.00
36014;BME280;22275;43.208;27.620;2023-07-31T05:25:02;100676.50;;;29.08;100.00
36014;BME280;22275;43.208;27.620;2023-07-31T05:27:32;100676.44;;;29.22;100.00
36014;BME280;22275;43.208;27.620;2023-07-31T05:29:59;100685.00;;;29.12;100.00
36014;BME280;22275;43.208;27.620;2023-07-31T05:32:26;100678.03;;;29.49;100.00
36014;BME280;22275;43.208;27.620;2023-07-31T05:34:53;100676.03;;;29.31;100.00
36014;BME280;22275;43.208;27.620;2023-07-31T05:37:20;100682.41;;;29.50;100.00
36014;BME280;22275;43.208;27.620;2023-07-31T05:39:47;100677.25;;;29.80;100.00
36014;BME280;22275;43.208;27.620;2023-07-31T05:42:14;100680.03;;;29.67;100.00
36014;BME280;22275;43.208;27.620;2023-07-31T05:44:42;100674.78;;;30.41;100.00
36014;BME280;22275;43.208;27.620;2023-07-31T05:47:10;100666.06;;;30.32;100.00
36014;BME280;22275;43.208;27.620;2023-07-31T05:49:37;100682.34;;;30.32;100.00
36014;BME280;22275;43.208;27.620;2023-07-31T05:52:04;100686.03;;;30.51;100.00
36014;BME280;22275;43.208;27.620;2023-07-31T05:54:32;100681.75;;;30.61;100.00
36014;BME280;22275;43.208;27.620;2023-07-31T05:56:59;100687.66;;;31.01;100.00
36014;BME280;22275;43.208;27.620;2023-07-31T05:59:26;100686.53;;;31.27;100.00
36014;BME280;22275;43.208;27.620;2023-07-31T06:01:54;100686.59;;;31.57;100.00
36014;BME280;22275;43.208;27.620;2023-07-31T06:04:21;100679.50;;;31.56;100.00
36014;BME280;22275;43.208;27.620;2023-07-31T06:06:50;100687.19;;;31.41;100.00
36014;BME280;22275;43.208;27.620;2023-07-31T06:09:17;100680.91;;;31.40;100.00
36014;BME280;22275;43.208;27.620;2023-07-31T06:11:45;100679.00;;;31.47;100.00
36014;BME280;22275;43.208;27.620;2023-07-31T06:14:12;100685.69;;;31.45;100.00
36014;BME280;22275;43.208;27.620;2023-07-31T06:16:40;100683.28;;;31.55;100.00
36014;BME280;22275;43.208;27.620;2023-07-31T06:19:08;100679.41;;;31.62;100.00
36014;BME280;22275;43.208;27.620;2023-07-31T06:21:35;100692.41;;;31.60;100.00
36014;BME280;22275;43.208;27.620;2023-07-31T06:24:03;100684.41;;;31.95;100.00
36014;BME280;22275;43.208;27.620;2023-07-31T06:26:30;100684.22;;;32.50;100.00
36014;BME280;22275;43.208;27.620;2023-07-31T06:28:57;100687.72;;;31.97;100.00
36014;BME280;22275;43.208;27.620;2023-07-31T06:31:24;100684.50;;;31.88;100.00
36014;BME280;22275;43.208;27.620;2023-07-31T06:33:51;100685.16;;;32.02;100.00
36014;BME280;22275;43.208;27.620;2023-07-31T06:36:19;100683.78;;;31.93;100.00
36014;BME280;22275;43.208;27.620;2023-07-31T06:38:46;100686.25;;;31.83;100.00
36014;BME280;22275;43.208;27.620;2023-07-31T06:41:13;100689.47;;;31.25;100.00
36014;BME280;22275;43.208;27.620;2023-07-31T06:43:40;100693.03;;;31.44;100.00
36014;BME280;22275;43.208;27.620;2023-07-31T06:46:07;100691.03;;;31.99;100.00
36014;BME280;22275;43.208;27.620;2023-07-31T06:48:35;100683.78;;;31.63;100.00
36014;BME280;22275;43.208;27.620;2023-07-31T06:51:03;100682.59;;;31.89;100.00
36014;BME280;22275;43.208;27.620;2023-07-31T06:53:31;100681.16;;;31.39;100.00
36014;BME280;22275;43.208;27.620;2023-07-31T06:55:58;100683.38;;;31.78;100.00
36014;BME280;22275;43.208;27.620;2023-07-31T06:58:25;100679.06;;;32.18;100.00
36014;BME280;22275;43.208;27.620;2023-07-31T07:00:52;100679.25;;;32.81;100.00
36014;BME280;22275;43.208;27.620;2023-07-31T07:03:19;100675.47;;;32.71;100.00
36014;BME280;22275;43.208;27.620;2023-07-31T07:05:47;100674.75;;;32.64;100.00
36014;BME280;22275;43.208;27.620;2023-07-31T07:08:14;100678.00;;;32.42;100.00
36014;BME280;22275;43.208;27.620;2023-07-31T07:10:45;100684.53;;;32.53;100.00
36014;BME280;22275;43.208;27.620;2023-07-31T07:13:13;100670.94;;;32.76;100.00
36014;BME280;22275;43.208;27.620;2023-07-31T07:15:40;100683.34;;;32.37;100.00
36014;BME280;22275;43.208;27.620;2023-07-31T07:18:07;100672.72;;;32.94;100.00
36014;BME280;22275;43.208;27.620;2023-07-31T07:20:35;100674.84;;;33.15;100.00
36014;BME280;22275;43.208;27.620;2023-07-31T07:23:04;100670.56;;;32.96;100.00
36014;BME280;22275;43.208;27.620;2023-07-31T07:25:31;100674.75;;;33.10;100.00
36014;BME280;22275;43.208;27.620;2023-07-31T07:27:59;100671.13;;;33.73;100.00
36014;BME280;22275;43.208;27.620;2023-07-31T07:30:26;100666.78;;;33.72;100.00
36014;BME280;22275;43.208;27.620;2023-07-31T07:32:53;100659.75;;;33.24;100.00
36014;BME280;22275;43.208;27.620;2023-07-31T07:35:21;100668.50;;;33.78;100.00
36014;BME280;22275;43.208;27.620;2023-07-31T07:37:48;100668.59;;;33.54;100.00
36014;BME280;22275;43.208;27.620;2023-07-31T07:40:15;100677.50;;;32.22;100.00
36014;BME280;22275;43.208;27.620;2023-07-31T07:42:42;100666.34;;;32.12;100.00
36014;BME280;22275;43.208;27.620;2023-07-31T07:45:10;100680.75;;;32.42;100.00
36014;BME280;22275;43.208;27.620;2023-07-31T07:47:37;100680.84;;;31.95;100.00
36014;BME280;22275;43.208;27.620;2023-07-31T07:50:05;100671.56;;;32.14;100.00
36014;BME280;22275;43.208;27.620;2023-07-31T07:52:32;100678.72;;;32.26;100.00
36014;BME280;22275;43.208;27.620;2023-07-31T07:54:59;100672.09;;;33.15;100.00
36014;BME280;22275;43.208;27.620;2023-07-31T07:57:26;100667.97;;;32.89;100.00
36014;BME280;22275;43.208;27.620;2023-07-31T07:59:53;100673.56;;;33.06;100.00
36014;BME280;22275;43.208;27.620;2023-07-31T08:02:22;100669.53;;;33.09;100.00
36014;BME280;22275;43.208;27.620;2023-07-31T08:04:50;100670.00;;;32.71;100.00
36014;BME280;22275;43.208;27.620;2023-07-31T08:07:17;100678.25;;;32.53;100.00
36014;BME280;22275;43.208;27.620;2023-07-31T08:09:45;100676.97;;;32.67;100.00
36014;BME280;22275;43.208;27.620;2023-07-31T08:12:11;100684.53;;;32.41;100.00
36014;BME280;22275;43.208;27.620;2023-07-31T08:14:39;100686.72;;;32.97;100.00
36014;BME280;22275;43.208;27.620;2023-07-31T08:17:06;100694.00;;;31.98;100.00
36014;BME280;22275;43.208;27.620;2023-07-31T08:19:35;100699.28;;;32.11;100.00
36014;BME280;22275;43.208;27.620;2023-07-31T08:22:02;100701.50;;;32.02;100.00
36014;BME280;22275;43.208;27.620;2023-07-31T08:24:29;100705.66;;;31.57;100.00
36014;BME280;22275;43.208;27.620;2023-07-31T08:26:56;100702.09;;;31.56;100.00
36014;BME280;22275;43.208;27.620;2023-07-31T08:29:23;100703.84;;;32.28;100.00
36014;BME280;22275;43.208;27.620;2023-07-31T08:31:50;100709.53;;;32.38;100.00
36014;BME280;22275;43.208;27.620;2023-07-31T08:34:18;100713.72;;;32.53;100.00
36014;BME280;22275;43.208;27.620;2023-07-31T08:36:46;100711.09;;;32.05;100.00
36014;BME280;22275;43.208;27.620;2023-07-31T08:39:13;100719.00;;;31.76;100.00
36014;BME280;22275;43.208;27.620;2023-07-31T08:41:41;100721.16;;;31.74;100.00
36014;BME280;22275;43.208;27.620;2023-07-31T08:44:07;100714.38;;;31.47;100.00
36014;BME280;22275;43.208;27.620;2023-07-31T08:46:34;100715.25;;;31.05;100.00
36014;BME280;22275;43.208;27.620;2023-07-31T08:49:02;100718.66;;;31.18;100.00
36014;BME280;22275;43.208;27.620;2023-07-31T08:51:30;100723.03;;;31.19;100.00
36014;BME280;22275;43.208;27.620;2023-07-31T08:53:59;100723.47;;;30.98;100.00
36014;BME280;22275;43.208;27.620;2023-07-31T08:56:26;100740.41;;;30.75;100.00
36014;BME280;22275;43.208;27.620;2023-07-31T08:58:54;100723.88;;;32.34;100.00
36014;BME280;22275;43.208;27.620;2023-07-31T09:01:21;100731.34;;;31.43;100.00
36014;BME280;22275;43.208;27.620;2023-07-31T09:03:48;100734.06;;;31.06;100.00
36014;BME280;22275;43.208;27.620;2023-07-31T09:06:15;100729.00;;;31.28;100.00
36014;BME280;22275;43.208;27.620;2023-07-31T09:08:45;100733.47;;;31.41;100.00
36014;BME280;22275;43.208;27.620;2023-07-31T09:11:13;100743.38;;;31.35;100.00
36014;BME280;22275;43.208;27.620;2023-07-31T09:13:40;100729.06;;;31.76;100.00
36014;BME280;22275;43.208;27.620;2023-07-31T09:16:08;100734.88;;;31.50;100.00
36014;BME280;22275;43.208;27.620;2023-07-31T09:18:41;100737.09;;;31.35;100.00
36014;BME280;22275;43.208;27.620;2023-07-31T09:21:19;100734.06;;;31.43;100.00
36014;BME280;22275;43.208;27.620;2023-07-31T09:23:46;100737.06;;;30.98;100.00
36014;BME280;22275;43.208;27.620;2023-07-31T09:28:57;100745.59;;;31.45;100.00
36014;BME280;22275;43.208;27.620;2023-07-31T09:31:38;100740.59;;;31.60;100.00
36014;BME280;22275;43.208;27.620;2023-07-31T09:34:05;100747.38;;;30.96;100.00
36014;BME280;22275;43.208;27.620;2023-07-31T09:36:32;100746.94;;;31.17;100.00
36014;BME280;22275;43.208;27.620;2023-07-31T09:39:01;100741.41;;;31.42;100.00
36014;BME280;22275;43.208;27.620;2023-07-31T09:41:28;100749.06;;;31.15;100.00
36014;BME280;22275;43.208;27.620;2023-07-31T09:43:55;100744.59;;;31.21;100.00
36014;BME280;22275;43.208;27.620;2023-07-31T09:46:24;100747.13;;;30.98;100.00
36014;BME280;22275;43.208;27.620;2023-07-31T09:48:53;100743.72;;;31.02;100.00
36014;BME280;22275;43.208;27.620;2023-07-31T09:51:30;100741.53;;;30.93;100.00
36014;BME280;22275;43.208;27.620;2023-07-31T09:53:57;100752.56;;;30.73;100.00
36014;BME280;22275;43.208;27.620;2023-07-31T09:56:24;100747.59;;;30.88;100.00
36014;BME280;22275;43.208;27.620;2023-07-31T09:58:52;100749.41;;;30.76;100.00
36014;BME280;22275;43.208;27.620;2023-07-31T10:01:20;100748.44;;;31.31;100.00
36014;BME280;22275;43.208;27.620;2023-07-31T10:03:49;100745.44;;;30.97;100.00
36014;BME280;22275;43.208;27.620;2023-07-31T10:06:16;100747.16;;;30.91;100.00
36014;BME280;22275;43.208;27.620;2023-07-31T10:08:44;100749.25;;;30.89;100.00
36014;BME280;22275;43.208;27.620;2023-07-31T10:11:14;100747.22;;;30.85;100.00
36014;BME280;22275;43.208;27.620;2023-07-31T10:13:41;100740.53;;;31.30;100.00
36014;BME280;22275;43.208;27.620;2023-07-31T10:16:09;100740.59;;;31.23;100.00
36014;BME280;22275;43.208;27.620;2023-07-31T10:18:37;100739.53;;;31.24;100.00
36014;BME280;22275;43.208;27.620;2023-07-31T13:10:13;100676.22;;;27.98;100.00
36014;BME280;22275;43.208;27.620;2023-07-31T13:12:40;100675.50;;;28.18;100.00
36014;BME280;22275;43.208;27.620;2023-07-31T13:15:08;100668.19;;;28.51;100.00
36014;BME280;22275;43.208;27.620;2023-07-31T13:17:36;100658.72;;;29.13;100.00
36014;BME280;22275;43.208;27.620;2023-07-31T13:20:04;100662.13;;;28.88;100.00
36014;BME280;22275;43.208;27.620;2023-07-31T13:22:31;100656.97;;;29.38;100.00
36014;BME280;22275;43.208;27.620;2023-07-31T13:24:59;100659.84;;;29.56;100.00
36014;BME280;22275;43.208;27.620;2023-07-31T13:27:27;100662.47;;;29.31;100.00
36014;BME280;22275;43.208;27.620;2023-07-31T13:29:55;100663.59;;;29.55;100.00
36014;BME280;22275;43.208;27.620;2023-07-31T13:32:22;100664.09;;;29.83;100.00
36014;BME280;22275;43.208;27.620;2023-07-31T13:34:49;100666.78;;;29.45;100.00
36014;BME280;22275;43.208;27.620;2023-07-31T13:37:16;100672.53;;;28.98;100.00
36014;BME280;22275;43.208;27.620;2023-07-31T13:39:44;100671.38;;;29.89;100.00
36014;BME280;22275;43.208;27.620;2023-07-31T13:42:11;100667.09;;;29.69;100.00
36014;BME280;22275;43.208;27.620;2023-07-31T13:44:40;100669.44;;;28.94;100.00
36014;BME280;22275;43.208;27.620;2023-07-31T13:47:08;100667.13;;;28.59;100.00
36014;BME280;22275;43.208;27.620;2023-07-31T13:49:36;100673.84;;;28.43;100.00
36014;BME280;22275;43.208;27.620;2023-07-31T13:52:05;100682.16;;;28.81;100.00
36014;BME280;22275;43.208;27.620;2023-07-31T13:54:32;100682.91;;;29.21;100.00
36014;BME280;22275;43.208;27.620;2023-07-31T13:56:59;100672.94;;;29.15;100.00
36014;BME280;22275;43.208;27.620;2023-07-31T13:59:27;100681.03;;;29.21;100.00
36014;BME280;22275;43.208;27.620;2023-07-31T14:01:56;100676.25;;;29.17;100.00
36014;BME280;22275;43.208;27.620;2023-07-31T14:04:23;100678.56;;;29.06;100.00
36014;BME280;22275;43.208;27.620;2023-07-31T14:06:50;100672.78;;;28.44;100.00
36014;BME280;22275;43.208;27.620;2023-07-31T14:09:17;100673.22;;;28.41;100.00
36014;BME280;22275;43.208;27.620;2023-07-31T14:11:44;100675.88;;;28.93;100.00
36014;BME280;22275;43.208;27.620;2023-07-31T14:14:12;100669.00;;;28.58;100.00
36014;BME280;22275;43.208;27.620;2023-07-31T14:16:39;100672.56;;;28.59;100.00
36014;BME280;22275;43.208;27.620;2023-07-31T14:19:08;100674.47;;;28.78;100.00
36014;BME280;22275;43.208;27.620;2023-07-31T14:21:35;100671.13;;;28.82;100.00
36014;BME280;22275;43.208;27.620;2023-07-31T14:24:03;100675.88;;;28.93;100.00
36014;BME280;22275;43.208;27.620;2023-07-31T14:26:30;100670.06;;;28.83;100.00
36014;BME280;22275;43.208;27.620;2023-07-31T14:28:58;100674.19;;;28.99;100.00
36014;BME280;22275;43.208;27.620;2023-07-31T14:31:25;100672.94;;;29.01;100.00
36014;BME280;22275;43.208;27.620;2023-07-31T14:33:52;100672.59;;;28.52;100.00
36014;BME280;22275;43.208;27.620;2023-07-31T14:36:21;100671.31;;;28.48;100.00
36014;BME280;22275;43.208;27.620;2023-07-31T14:38:48;100672.00;;;29.40;100.00
36014;BME280;22275;43.208;27.620;2023-07-31T14:41:16;100673.34;;;29.12;100.00
36014;BME280;22275;43.208;27.620;2023-07-31T14:43:43;100676.50;;;28.95;100.00
36014;BME280;22275;43.208;27.620;2023-07-31T14:46:10;100667.56;;;28.88;100.00
36014;BME280;22275;43.208;27.620;2023-07-31T14:48:37;100663.38;;;28.53;100.00
36014;BME280;22275;43.208;27.620;2023-07-31T14:51:05;100665.88;;;28.87;100.00
36014;BME280;22275;43.208;27.620;2023-07-31T14:53:33;100661.31;;;28.81;100.00
36014;BME280;22275;43.208;27.620;2023-07-31T14:56:01;100656.72;;;29.52;100.00
36014;BME280;22275;43.208;27.620;2023-07-31T14:58:28;100656.09;;;29.50;100.00
36014;BME280;22275;43.208;27.620;2023-07-31T15:00:55;100656.72;;;28.88;100.00
36014;BME280;22275;43.208;27.620;2023-07-31T15:03:23;100639.59;;;28.94;100.00
36014;BME280;22275;43.208;27.620;2023-07-31T15:05:50;100642.06;;;29.02;100.00
36014;BME280;22275;43.208;27.620;2023-07-31T15:08:18;100633.41;;;29.83;100.00
36014;BME280;22275;43.208;27.620;2023-07-31T15:10:47;100638.03;;;29.69;100.00
36014;BME280;22275;43.208;27.620;2023-07-31T15:13:14;100631.97;;;29.74;100.00
36014;BME280;22275;43.208;27.620;2023-07-31T15:15:41;100627.53;;;30.42;100.00
36014;BME280;22275;43.208;27.620;2023-07-31T15:18:09;100622.44;;;30.20;100.00
36014;BME280;22275;43.208;27.620;2023-07-31T15:20:36;100634.06;;;29.21;100.00
36014;BME280;22275;43.208;27.620;2023-07-31T15:23:03;100631.06;;;28.84;100.00
36014;BME280;22275;43.208;27.620;2023-07-31T15:25:31;100620.44;;;29.78;100.00
36014;BME280;22275;43.208;27.620;2023-07-31T15:27:59;100625.66;;;29.42;100.00